createdAt,value
2022-08-11T00:02:18.245Z,16.71
2022-08-11T00:04:54.987Z,16.76
2022-08-11T00:07:45.850Z,16.85
2022-08-11T00:10:24.954Z,16.75
2022-08-11T00:13:07.896Z,16.60
2022-08-11T00:15:57.847Z,16.61
2022-08-11T00:18:51.495Z,16.56
2022-08-11T00:22:02.901Z,16.50
2022-08-11T00:24:25.917Z,16.48
2022-08-11T00:27:00.870Z,16.45
2022-08-11T00:29:51.608Z,16.47
2022-08-11T00:32:37.664Z,16.42
2022-08-11T00:35:52.469Z,16.33
2022-08-11T00:38:33.324Z,16.18
2022-08-11T00:41:10.342Z,16.23
2022-08-11T00:44:21.684Z,16.24
2022-08-11T00:47:35.675Z,16.22
2022-08-11T00:50:19.837Z,16.32
2022-08-11T00:53:19.372Z,16.38
2022-08-11T00:56:18.616Z,16.42
2022-08-11T00:59:35.371Z,16.46
2022-08-11T01:02:30.711Z,16.41
2022-08-11T01:05:40.954Z,16.48
2022-08-11T01:09:03.487Z,16.45
2022-08-11T01:12:17.926Z,16.43
2022-08-11T01:15:22.159Z,16.48
2022-08-11T01:18:20.040Z,16.33
2022-08-11T01:21:23.691Z,16.27
2022-08-11T01:24:30.361Z,16.12
2022-08-11T01:27:28.585Z,15.95
2022-08-11T01:30:40.660Z,15.83
2022-08-11T01:33:46.493Z,15.68
2022-08-11T01:36:57.319Z,15.58
2022-08-11T01:39:49.656Z,15.60
2022-08-11T01:43:14.849Z,15.58
2022-08-11T01:45:58.820Z,15.49
2022-08-11T01:50:06.424Z,15.39
2022-08-11T01:52:33.642Z,15.33
2022-08-11T01:55:32.887Z,15.32
2022-08-11T01:58:39.482Z,15.28
2022-08-11T02:01:40.884Z,15.32
2022-08-11T02:04:19.859Z,15.30
2022-08-11T02:07:15.453Z,15.26
2022-08-11T02:09:58.017Z,15.28
2022-08-11T02:13:02.945Z,15.12
2022-08-11T02:16:06.488Z,15.14
2022-08-11T02:19:14.523Z,15.15
2022-08-11T02:22:21.324Z,15.08
2022-08-11T02:25:20.434Z,14.94
2022-08-11T02:28:23.966Z,14.92
2022-08-11T02:32:23.930Z,14.87
2022-08-11T02:35:09.161Z,14.79
2022-08-11T02:38:06.425Z,14.68
2022-08-11T02:41:01.604Z,14.79
2022-08-11T02:44:05.763Z,14.61
2022-08-11T02:47:17.093Z,14.68
2022-08-11T02:50:32.837Z,14.54
2022-08-11T02:53:12.870Z,14.63
2022-08-11T02:56:00.846Z,14.64
2022-08-11T02:59:16.245Z,14.68
2022-08-11T03:02:04.585Z,14.63
2022-08-11T03:04:52.925Z,14.70
2022-08-11T03:08:22.379Z,14.77
2022-08-11T03:11:28.206Z,14.78
2022-08-11T03:14:35.407Z,14.69
2022-08-11T03:17:40.113Z,14.67
2022-08-11T03:20:24.954Z,14.58
2022-08-11T03:23:40.876Z,14.49
2022-08-11T03:26:42.738Z,14.52
2022-08-11T03:29:33.946Z,14.40
2022-08-11T03:32:31.563Z,14.36
2022-08-11T03:35:08.808Z,14.30
2022-08-11T03:38:14.440Z,14.27
2022-08-11T03:42:01.418Z,14.20
2022-08-11T03:45:15.086Z,14.16
2022-08-11T03:48:14.013Z,14.16
2022-08-11T03:51:44.819Z,14.14
2022-08-11T03:55:08.583Z,14.16
2022-08-11T03:58:07.596Z,14.21
2022-08-11T04:00:55.987Z,14.28
2022-08-11T04:04:00.733Z,14.42
2022-08-11T04:07:10.859Z,14.47
2022-08-11T04:10:22.994Z,14.59
2022-08-11T04:13:44.860Z,14.72
2022-08-11T04:16:28.790Z,14.88
2022-08-11T04:19:29.634Z,14.87
2022-08-11T04:22:27.549Z,15.10
2022-08-11T04:25:28.742Z,15.06
2022-08-11T04:28:29.147Z,15.04
2022-08-11T04:31:50.634Z,15.02
2022-08-11T04:34:55.893Z,15.09
2022-08-11T04:38:09.018Z,15.15
2022-08-11T04:41:01.479Z,15.20
2022-08-11T04:44:25.019Z,15.26
2022-08-11T04:48:04.451Z,15.30
2022-08-11T04:51:39.454Z,15.41
2022-08-11T04:54:58.454Z,15.52
2022-08-11T04:58:10.160Z,15.60
2022-08-11T05:01:37.268Z,15.77
2022-08-11T05:04:41.133Z,15.86
2022-08-11T05:07:49.454Z,16.12
2022-08-11T05:10:52.976Z,16.49
2022-08-11T05:14:10.651Z,16.99
2022-08-11T05:17:12.375Z,17.24
2022-08-11T05:20:08.418Z,17.48
2022-08-11T05:23:06.385Z,17.62
2022-08-11T05:26:43.778Z,17.79
2022-08-11T05:29:21.801Z,17.89
2022-08-11T05:32:35.690Z,17.89
2022-08-11T05:35:08.874Z,18.03
2022-08-11T05:38:16.651Z,18.24
2022-08-11T05:41:13.256Z,18.56
2022-08-11T05:44:20.216Z,19.08
2022-08-11T05:47:16.679Z,19.40
2022-08-11T05:50:15.301Z,19.59
2022-08-11T05:53:09.307Z,19.62
2022-08-11T05:56:08.040Z,20.23
2022-08-11T05:58:44.774Z,20.66
2022-08-11T06:01:34.276Z,20.67
2022-08-11T06:04:19.871Z,20.95
2022-08-11T06:07:10.568Z,21.35
2022-08-11T06:09:56.075Z,21.94
2022-08-11T06:12:43.573Z,22.46
2022-08-11T06:15:27.590Z,22.40
2022-08-11T06:18:08.760Z,22.83
2022-08-11T06:21:00.538Z,23.30
2022-08-11T06:23:43.869Z,23.38
2022-08-11T06:26:22.717Z,23.54
2022-08-11T06:29:11.134Z,23.18
2022-08-11T06:31:47.632Z,23.08
2022-08-11T06:34:27.665Z,23.42
2022-08-11T06:37:24.429Z,23.49
2022-08-11T06:40:27.406Z,23.93
2022-08-11T06:43:27.439Z,24.10
2022-08-11T06:46:12.898Z,23.86
2022-08-11T06:49:06.882Z,24.30
2022-08-11T06:52:04.406Z,24.53
2022-08-11T06:54:49.370Z,25.13
2022-08-11T06:57:56.641Z,25.14
2022-08-11T07:00:37.316Z,25.63
2022-08-11T07:03:15.820Z,25.37
2022-08-11T07:06:09.401Z,25.72
2022-08-11T07:09:35.697Z,26.10
2022-08-11T07:12:38.768Z,26.44
2022-08-11T07:16:10.892Z,26.69
2022-08-11T07:19:02.922Z,26.98
2022-08-11T07:22:03.741Z,27.13
2022-08-11T07:25:26.537Z,27.02
2022-08-11T07:28:30.288Z,27.26
2022-08-11T07:31:42.807Z,27.28
2022-08-11T07:34:34.522Z,27.47
2022-08-11T07:37:17.992Z,27.20
2022-08-11T07:39:54.168Z,27.21
2022-08-11T07:42:41.621Z,26.59
2022-08-11T07:45:34.357Z,26.07
2022-08-11T07:48:33.503Z,25.55
2022-08-11T07:51:25.450Z,25.81
2022-08-11T07:54:17.087Z,25.81
2022-08-11T07:56:55.116Z,26.19
2022-08-11T08:00:10.500Z,26.01
2022-08-11T08:03:08.804Z,26.14
2022-08-11T08:06:00.147Z,25.99
2022-08-11T08:08:55.800Z,26.10
2022-08-11T08:11:46.821Z,26.47
2022-08-11T08:14:42.867Z,26.26
2022-08-11T08:17:37.492Z,26.44
2022-08-11T08:20:10.273Z,26.72
2022-08-11T08:22:57.143Z,26.95
2022-08-11T08:25:39.017Z,26.88
2022-08-11T08:28:21.882Z,26.97
2022-08-11T08:30:52.957Z,26.92
2022-08-11T08:33:40.891Z,27.15
2022-08-11T08:36:18.692Z,27.14
2022-08-11T08:39:00.781Z,27.58
2022-08-11T08:41:50.908Z,27.80
2022-08-11T08:44:38.358Z,27.99
2022-08-11T08:47:42.913Z,27.86
2022-08-11T08:50:47.581Z,27.77
2022-08-11T08:53:52.497Z,27.27
2022-08-11T08:56:38.659Z,27.86
2022-08-11T08:59:16.489Z,28.10
2022-08-11T09:02:13.082Z,27.60
2022-08-11T09:04:52.333Z,28.22
2022-08-11T09:07:26.594Z,28.00
2022-08-11T09:10:08.251Z,27.47
2022-08-11T09:12:44.076Z,27.45
2022-08-11T09:15:27.303Z,27.82
2022-08-11T09:18:09.377Z,27.14
2022-08-11T09:20:47.017Z,27.51
2022-08-11T09:24:06.800Z,27.59
2022-08-11T09:27:03.033Z,27.42
2022-08-11T09:29:39.100Z,27.66
2022-08-11T09:32:15.461Z,27.34
2022-08-11T09:34:45.888Z,27.56
2022-08-11T09:37:55.542Z,28.16
2022-08-11T09:40:41.935Z,28.31
2022-08-11T09:43:39.461Z,28.08
2022-08-11T09:46:18.123Z,27.34
2022-08-11T09:49:02.241Z,26.96
2022-08-11T09:51:42.726Z,26.85
2022-08-11T09:54:48.202Z,27.46
2022-08-11T09:57:44.080Z,27.98
2022-08-11T10:00:24.677Z,28.04
2022-08-11T10:03:01.639Z,27.90
2022-08-11T10:05:57.377Z,28.43
2022-08-11T10:08:30.988Z,28.31
2022-08-11T10:11:09.445Z,28.05
2022-08-11T10:14:30.986Z,27.74
2022-08-11T10:17:08.053Z,27.60
2022-08-11T10:20:02.019Z,27.86
2022-08-11T10:22:59.692Z,28.09
2022-08-11T10:25:50.378Z,28.29
2022-08-11T10:28:55.607Z,28.77
2022-08-11T10:31:57.426Z,28.34
2022-08-11T10:34:31.797Z,28.25
2022-08-11T10:37:15.108Z,27.79
2022-08-11T10:39:55.592Z,27.46
2022-08-11T10:42:57.680Z,27.59
2022-08-11T10:45:48.480Z,27.44
2022-08-11T10:48:30.558Z,27.21
2022-08-11T10:51:49.962Z,27.34
2022-08-11T10:54:40.007Z,27.41
2022-08-11T10:57:31.564Z,27.23
2022-08-11T11:00:06.929Z,27.40
2022-08-11T11:02:41.931Z,27.82
2022-08-11T11:05:25.319Z,27.88
2022-08-11T11:08:27.006Z,28.07
2022-08-11T11:11:05.065Z,28.20
2022-08-11T11:13:53.180Z,28.53
2022-08-11T11:16:49.090Z,28.80
2022-08-11T11:19:36.608Z,28.47
2022-08-11T11:22:29.776Z,28.16
2022-08-11T11:25:23.488Z,28.19
2022-08-11T11:28:18.963Z,28.49
2022-08-11T11:30:57.697Z,29.13
2022-08-11T11:34:06.051Z,29.24
2022-08-11T11:37:04.274Z,29.47
2022-08-11T11:39:34.283Z,29.66
2022-08-11T11:42:10.662Z,29.74
2022-08-11T11:44:49.475Z,29.38
2022-08-11T11:47:22.684Z,29.33
2022-08-11T11:50:03.284Z,29.50
2022-08-11T11:52:44.202Z,29.37
2022-08-11T11:55:19.993Z,28.86
2022-08-11T11:58:08.615Z,28.03
2022-08-11T12:01:08.103Z,27.63
2022-08-11T12:03:44.944Z,27.76
2022-08-11T12:06:25.212Z,27.72
2022-08-11T12:09:04.471Z,28.08
2022-08-11T12:11:57.691Z,27.86
2022-08-11T12:14:32.948Z,27.43
2022-08-11T12:17:05.808Z,27.48
2022-08-11T12:19:48.634Z,27.70
2022-08-11T12:22:39.514Z,27.74
2022-08-11T12:25:30.651Z,27.77
2022-08-11T12:28:10.616Z,28.32
2022-08-11T12:30:44.090Z,28.22
2022-08-11T12:33:24.270Z,28.51
2022-08-11T12:36:09.534Z,28.75
2022-08-11T12:38:42.985Z,29.33
2022-08-11T12:41:33.838Z,29.55
2022-08-11T12:44:27.969Z,28.92
2022-08-11T12:47:17.684Z,28.57
2022-08-11T12:50:20.893Z,28.26
2022-08-11T12:53:01.299Z,28.00
2022-08-11T12:56:03.795Z,27.95
2022-08-11T12:58:52.662Z,27.35
2022-08-11T13:01:47.058Z,27.46
2022-08-11T13:04:38.527Z,27.58
2022-08-11T13:07:20.281Z,27.62
2022-08-11T13:10:01.707Z,27.63
2022-08-11T13:12:52.836Z,27.67
2022-08-11T13:15:23.193Z,27.66
2022-08-11T13:18:05.618Z,27.46
2022-08-11T13:20:44.936Z,27.62
2022-08-11T13:23:23.954Z,27.83
2022-08-11T13:26:08.130Z,27.80
2022-08-11T13:28:47.922Z,28.05
2022-08-11T13:31:25.309Z,28.10
2022-08-11T13:34:08.896Z,28.23
2022-08-11T13:36:43.125Z,28.21
2022-08-11T13:39:18.049Z,27.89
2022-08-11T13:41:53.272Z,28.10
2022-08-11T13:44:32.151Z,28.09
2022-08-11T13:47:09.894Z,27.66
2022-08-11T13:49:50.207Z,27.97
2022-08-11T13:52:31.102Z,28.36
2022-08-11T13:55:45.156Z,28.51
2022-08-11T13:58:19.784Z,28.51
2022-08-11T14:01:51.408Z,28.39
2022-08-11T14:04:30.516Z,28.11
2022-08-11T14:07:07.727Z,27.97
2022-08-11T14:09:48.023Z,27.83
2022-08-11T14:12:52.346Z,27.97
2022-08-11T14:15:56.989Z,28.05
2022-08-11T14:18:37.388Z,27.97
2022-08-11T14:21:31.483Z,28.21
2022-08-11T14:24:03.889Z,28.32
2022-08-11T14:26:39.130Z,28.42
2022-08-11T14:31:57.889Z,28.28
2022-08-11T14:34:34.567Z,28.67
2022-08-11T14:37:12.006Z,29.07
2022-08-11T14:39:56.381Z,28.95
2022-08-11T14:42:52.831Z,28.72
2022-08-11T14:45:57.581Z,28.70
2022-08-11T14:48:32.393Z,28.52
2022-08-11T14:51:11.146Z,28.27
2022-08-11T14:54:06.028Z,28.01
2022-08-11T14:56:44.085Z,27.84
2022-08-11T14:59:21.525Z,27.52
2022-08-11T15:02:14.426Z,27.44
2022-08-11T15:04:51.854Z,27.31
2022-08-11T15:07:32.731Z,27.33
2022-08-11T15:10:16.286Z,27.23
2022-08-11T15:12:51.842Z,27.25
2022-08-11T15:15:46.377Z,27.39
2022-08-11T15:18:21.037Z,27.37
2022-08-11T15:21:15.536Z,27.22
2022-08-11T15:24:00.929Z,27.16
2022-08-11T15:27:05.940Z,27.06
2022-08-11T15:29:54.703Z,26.97
2022-08-11T15:32:43.769Z,26.96
2022-08-11T15:35:39.503Z,26.82
2022-08-11T15:38:25.923Z,26.87
2022-08-11T15:41:17.815Z,27.03
2022-08-11T15:44:17.710Z,27.14
2022-08-11T15:46:55.407Z,26.73
2022-08-11T15:50:11.057Z,26.81
2022-08-11T15:52:51.011Z,26.84
2022-08-11T15:55:27.255Z,26.86
2022-08-11T15:58:20.710Z,26.88
2022-08-11T16:01:09.591Z,26.53
2022-08-11T16:04:08.137Z,26.37
2022-08-11T16:06:50.949Z,26.48
2022-08-11T16:09:46.876Z,26.38
2022-08-11T16:12:23.191Z,26.25
2022-08-11T16:15:19.994Z,26.16
2022-08-11T16:18:09.704Z,25.98
2022-08-11T16:20:46.291Z,25.92
2022-08-11T16:23:28.439Z,25.91
2022-08-11T16:27:11.775Z,25.96
2022-08-11T16:29:07.042Z,25.80
2022-08-11T16:31:43.789Z,25.63
2022-08-11T16:34:40.676Z,25.63
2022-08-11T16:37:28.816Z,25.62
2022-08-11T16:40:14.617Z,25.48
2022-08-11T16:43:10.095Z,24.78
2022-08-11T16:46:06.522Z,24.31
2022-08-11T16:48:38.839Z,23.76
2022-08-11T16:51:18.010Z,23.45
2022-08-11T16:54:03.722Z,23.00
2022-08-11T16:56:46.095Z,22.84
2022-08-11T16:59:24.995Z,22.79
2022-08-11T17:02:00.219Z,22.50
2022-08-11T17:05:07.687Z,22.32
2022-08-11T17:08:02.821Z,22.03
2022-08-11T17:11:06.622Z,21.95
2022-08-11T17:13:53.511Z,21.89
2022-08-11T17:16:45.936Z,21.98
2022-08-11T17:20:42.361Z,21.99
2022-08-11T17:22:35.332Z,22.01
2022-08-11T17:25:14.919Z,21.98
2022-08-11T17:27:56.983Z,21.91
2022-08-11T17:30:54.550Z,21.89
2022-08-11T17:33:43.946Z,21.89
2022-08-11T17:36:24.228Z,21.95
2022-08-11T17:39:19.838Z,21.81
2022-08-11T17:42:13.379Z,21.70
2022-08-11T17:45:07.936Z,21.71
2022-08-11T17:48:00.115Z,21.79
2022-08-11T17:50:41.669Z,21.79
2022-08-11T17:53:31.540Z,21.76
2022-08-11T17:56:21.408Z,21.83
2022-08-11T17:59:11.865Z,21.92
2022-08-11T18:01:54.873Z,21.88
2022-08-11T18:04:32.722Z,21.81
2022-08-11T18:07:23.417Z,21.87
2022-08-11T18:10:17.329Z,21.82
2022-08-11T18:13:09.933Z,21.86
2022-08-11T18:16:04.419Z,21.69
2022-08-11T18:19:03.365Z,21.85
2022-08-11T18:22:13.064Z,21.79
2022-08-11T18:25:08.832Z,21.64
2022-08-11T18:28:01.755Z,21.58
2022-08-11T18:31:04.035Z,21.49
2022-08-11T18:34:07.878Z,21.57
2022-08-11T18:37:01.138Z,21.32
2022-08-11T18:39:56.216Z,21.23
2022-08-11T18:42:46.404Z,21.22
2022-08-11T18:45:45.580Z,21.13
2022-08-11T18:48:40.580Z,21.18
2022-08-11T18:51:36.959Z,21.11
2022-08-11T18:54:28.945Z,21.03
2022-08-11T18:57:20.954Z,20.99
2022-08-11T19:00:07.577Z,20.88
2022-08-11T19:02:59.366Z,20.91
2022-08-11T19:06:32.467Z,20.83
2022-08-11T19:09:20.653Z,20.81
2022-08-11T19:12:16.087Z,20.65
2022-08-11T19:15:08.523Z,20.58
2022-08-11T19:17:55.105Z,20.47
2022-08-11T19:20:47.846Z,20.42
2022-08-11T19:23:40.916Z,20.40
2022-08-11T19:26:39.559Z,20.37
2022-08-11T19:30:08.018Z,20.34
2022-08-11T19:32:47.887Z,20.19
2022-08-11T19:35:35.846Z,20.16
2022-08-11T19:38:27.455Z,20.11
2022-08-11T19:41:56.329Z,20.02
2022-08-11T19:44:42.317Z,19.91
2022-08-11T19:47:32.888Z,19.90
2022-08-11T19:50:26.574Z,19.87
2022-08-11T19:53:17.144Z,19.84
2022-08-11T19:56:09.679Z,19.78
2022-08-11T19:59:01.270Z,19.79
2022-08-11T20:02:01.354Z,19.76
2022-08-11T20:05:08.392Z,19.75
2022-08-11T20:07:56.387Z,19.68
2022-08-11T20:10:51.090Z,19.63
2022-08-11T20:13:45.810Z,19.48
2022-08-11T20:16:35.261Z,19.49
2022-08-11T20:19:55.738Z,19.51
2022-08-11T20:22:41.447Z,19.33
2022-08-11T20:25:33.066Z,19.27
2022-08-11T20:28:24.930Z,19.07
2022-08-11T20:31:15.528Z,18.91
2022-08-11T20:34:08.987Z,18.74
2022-08-11T20:36:58.201Z,18.73
2022-08-11T20:39:53.069Z,18.57
2022-08-11T20:42:44.656Z,18.53
2022-08-11T20:45:33.929Z,18.18
2022-08-11T20:48:27.460Z,18.23
2022-08-11T20:51:20.174Z,18.29
2022-08-11T20:54:14.236Z,18.14
2022-08-11T20:57:03.309Z,18.06
2022-08-11T21:00:06.448Z,17.87
2022-08-11T21:02:56.719Z,17.77
2022-08-11T21:06:10.237Z,17.57
2022-08-11T21:09:07.320Z,17.52
2022-08-11T21:11:58.414Z,17.40
2022-08-11T21:14:54.660Z,17.40
2022-08-11T21:18:00.543Z,17.21
2022-08-11T21:20:50.455Z,17.17
2022-08-11T21:23:43.146Z,16.95
2022-08-11T21:26:34.717Z,16.92
2022-08-11T21:29:25.808Z,16.85
2022-08-11T21:32:11.739Z,16.67
2022-08-11T21:35:08.875Z,16.62
2022-08-11T21:37:59.427Z,16.56
2022-08-11T21:40:51.170Z,16.57
2022-08-11T21:43:46.351Z,16.63
2022-08-11T21:46:37.788Z,16.48
2022-08-11T21:49:30.466Z,16.59
2022-08-11T21:52:21.428Z,16.51
2022-08-11T21:55:13.544Z,16.56
2022-08-11T21:58:07.831Z,16.53
2022-08-11T22:00:56.801Z,16.64
2022-08-11T22:03:50.752Z,16.60
2022-08-11T22:06:39.853Z,16.80
2022-08-11T22:09:28.527Z,16.97
2022-08-11T22:12:34.185Z,17.14
2022-08-11T22:15:30.669Z,17.18
2022-08-11T22:18:24.696Z,17.33
2022-08-11T22:22:01.486Z,17.40
2022-08-11T22:24:35.051Z,17.48
2022-08-11T22:27:28.527Z,17.48
2022-08-11T22:30:19.592Z,17.47
2022-08-11T22:33:15.197Z,17.56
2022-08-11T22:36:09.932Z,17.51
2022-08-11T22:39:07.385Z,17.45
2022-08-11T22:41:58.742Z,17.50
2022-08-11T22:44:56.662Z,17.49
2022-08-11T22:47:47.338Z,17.31
2022-08-11T22:50:33.395Z,17.20
2022-08-11T22:53:58.453Z,17.13
2022-08-11T22:56:45.748Z,17.09
2022-08-11T22:59:37.497Z,17.18
2022-08-11T23:02:29.998Z,17.30
2022-08-11T23:05:20.046Z,17.10
2022-08-11T23:08:11.045Z,17.09
2022-08-11T23:11:02.958Z,17.18
2022-08-11T23:13:53.718Z,17.04
2022-08-11T23:16:45.314Z,16.98
2022-08-11T23:20:06.636Z,16.93
2022-08-11T23:22:50.783Z,16.81
2022-08-11T23:25:44.020Z,16.70
2022-08-11T23:28:35.478Z,16.59
2022-08-11T23:31:24.978Z,16.50
2022-08-11T23:34:43.494Z,16.42
2022-08-11T23:37:26.743Z,16.38
2022-08-11T23:40:16.202Z,16.30
2022-08-11T23:43:16.296Z,16.07
2022-08-11T23:46:04.790Z,16.08
2022-08-11T23:48:56.751Z,16.04
2022-08-11T23:51:47.351Z,16.00
2022-08-11T23:54:37.438Z,15.96
2022-08-11T23:57:33.456Z,15.82
